createdAt,value
2023-03-01T00:01:52.894Z,-2.87
2023-03-01T00:04:22.466Z,-2.87
2023-03-01T00:06:51.807Z,-2.84
2023-03-01T00:09:21.121Z,-2.87
2023-03-01T00:11:50.375Z,-2.92
2023-03-01T00:14:19.623Z,-2.96
2023-03-01T00:16:49.004Z,-2.90
2023-03-01T00:19:20.307Z,-2.90
2023-03-01T00:21:49.986Z,-2.78
2023-03-01T00:24:19.334Z,-2.98
2023-03-01T00:26:48.627Z,-3.02
2023-03-01T00:29:17.877Z,-2.96
2023-03-01T00:31:47.382Z,-2.88
2023-03-01T00:34:17.091Z,-2.95
2023-03-01T00:36:46.698Z,-2.92
2023-03-01T00:39:16.887Z,-3.02
2023-03-01T00:41:46.298Z,-3.02
2023-03-01T00:44:15.741Z,-3.02
2023-03-01T00:46:45.317Z,-2.92
2023-03-01T00:49:14.917Z,-2.95
2023-03-01T00:51:44.368Z,-3.04
2023-03-01T00:54:13.759Z,-3.06
2023-03-01T00:56:43.324Z,-3.14
2023-03-01T00:59:12.643Z,-3.05
2023-03-01T01:01:42.522Z,-3.07
2023-03-01T01:04:14.522Z,-3.18
2023-03-01T01:06:46.021Z,-3.19
2023-03-01T01:09:20.754Z,-3.21
2023-03-01T01:11:52.114Z,-3.13
2023-03-01T01:14:21.962Z,-3.08
2023-03-01T01:16:52.128Z,-3.09
2023-03-01T01:19:21.672Z,-3.16
2023-03-01T01:21:51.274Z,-3.17
2023-03-01T01:24:21.251Z,-3.21
2023-03-01T01:26:51.142Z,-3.20
2023-03-01T01:29:20.754Z,-3.11
2023-03-01T01:31:50.914Z,-3.14
2023-03-01T01:34:22.447Z,-3.20
2023-03-01T01:36:54.971Z,-3.25
2023-03-01T01:39:24.884Z,-3.19
2023-03-01T01:41:54.106Z,-3.20
2023-03-01T01:44:26.253Z,-3.22
2023-03-01T01:47:01.286Z,-3.17
2023-03-01T01:49:48.745Z,-3.25
2023-03-01T01:52:24.744Z,-3.30
2023-03-01T01:54:59.645Z,-3.41
2023-03-01T01:57:40.962Z,-3.42
2023-03-01T02:00:13.802Z,-3.46
2023-03-01T02:02:44.022Z,-3.41
2023-03-01T02:05:25.390Z,-3.47
2023-03-01T02:07:55.066Z,-3.53
2023-03-01T02:10:25.837Z,-3.51
2023-03-01T02:12:57.097Z,-3.49
2023-03-01T02:15:27.657Z,-3.51
2023-03-01T02:17:57.691Z,-3.47
2023-03-01T02:20:36.404Z,-3.46
2023-03-01T02:23:06.755Z,-3.50
2023-03-01T02:25:51.330Z,-3.51
2023-03-01T02:28:26.558Z,-3.52
2023-03-01T02:31:14.099Z,-3.49
2023-03-01T02:33:44.126Z,-3.49
2023-03-01T02:36:16.567Z,-3.46
2023-03-01T02:38:46.585Z,-3.55
2023-03-01T02:41:18.383Z,-3.54
2023-03-01T02:43:48.845Z,-3.53
2023-03-01T02:46:24.163Z,-3.61
2023-03-01T02:48:58.564Z,-3.61
2023-03-01T02:51:34.162Z,-3.57
2023-03-01T02:54:23.022Z,-3.62
2023-03-01T02:56:53.383Z,-3.58
2023-03-01T02:59:26.501Z,-3.57
2023-03-01T03:01:56.241Z,-3.49
2023-03-01T03:04:25.678Z,-3.47
2023-03-01T03:06:55.079Z,-3.54
2023-03-01T03:09:24.562Z,-3.56
2023-03-01T03:11:53.795Z,-3.61
2023-03-01T03:14:24.931Z,-3.60
2023-03-01T03:16:54.415Z,-3.52
2023-03-01T03:19:23.736Z,-3.51
2023-03-01T03:21:53.589Z,-3.55
2023-03-01T03:24:23.374Z,-3.43
2023-03-01T03:26:52.632Z,-3.42
2023-03-01T03:29:22.089Z,-3.46
2023-03-01T03:31:51.447Z,-3.46
2023-03-01T03:34:20.760Z,-3.51
2023-03-01T03:36:50.097Z,-3.59
2023-03-01T03:39:20.690Z,-3.44
2023-03-01T03:41:50.061Z,-3.58
2023-03-01T03:44:19.300Z,-3.66
2023-03-01T03:46:48.912Z,-3.70
2023-03-01T03:49:18.150Z,-3.54
2023-03-01T03:51:48.069Z,-3.58
2023-03-01T03:54:18.050Z,-3.66
2023-03-01T03:56:47.311Z,-3.67
2023-03-01T03:59:16.556Z,-3.50
2023-03-01T04:01:46.173Z,-3.45
2023-03-01T04:04:17.117Z,-3.46
2023-03-01T04:06:46.608Z,-3.51
2023-03-01T04:09:16.051Z,-3.58
2023-03-01T04:11:45.579Z,-3.58
2023-03-01T04:14:14.929Z,-3.63
2023-03-01T04:16:44.630Z,-3.52
2023-03-01T04:19:15.660Z,-3.58
2023-03-01T04:21:45.259Z,-3.67
2023-03-01T04:24:14.493Z,-3.61
2023-03-01T04:26:43.723Z,-3.62
2023-03-01T04:29:13.271Z,-3.69
2023-03-01T04:31:42.916Z,-3.69
2023-03-01T04:34:12.197Z,-3.64
2023-03-01T04:36:41.504Z,-3.57
2023-03-01T04:39:12.652Z,-3.39
2023-03-01T04:41:44.319Z,-3.50
2023-03-01T04:44:13.729Z,-3.61
2023-03-01T04:46:42.989Z,-3.65
2023-03-01T04:49:12.405Z,-3.67
2023-03-01T04:51:41.663Z,-3.65
2023-03-01T04:54:11.408Z,-3.65
2023-03-01T04:56:40.671Z,-3.73
2023-03-01T04:59:11.091Z,-3.71
2023-03-01T05:01:40.399Z,-3.73
2023-03-01T05:04:11.335Z,-3.77
2023-03-01T05:06:40.680Z,-3.79
2023-03-01T05:09:10.023Z,-3.76
2023-03-01T05:11:40.028Z,-3.79
2023-03-01T05:14:10.063Z,-3.65
2023-03-01T05:16:39.285Z,-3.52
2023-03-01T05:19:10.175Z,-3.52
2023-03-01T05:21:41.981Z,-3.53
2023-03-01T05:24:12.770Z,-3.60
2023-03-01T05:26:42.704Z,-3.62
2023-03-01T05:29:12.196Z,-3.64
2023-03-01T05:31:42.102Z,-3.56
2023-03-01T05:34:13.349Z,-3.56
2023-03-01T05:36:42.676Z,-3.61
2023-03-01T05:39:12.460Z,-3.69
2023-03-01T05:41:41.773Z,-3.67
2023-03-01T05:44:12.769Z,-3.64
2023-03-01T05:46:42.031Z,-3.70
2023-03-01T05:49:11.290Z,-3.76
2023-03-01T05:51:41.405Z,-3.82
2023-03-01T05:54:11.853Z,-3.80
2023-03-01T05:56:41.234Z,-3.91
2023-03-01T05:59:10.462Z,-3.85
2023-03-01T06:01:40.160Z,-3.85
2023-03-01T06:04:10.185Z,-3.86
2023-03-01T06:06:40.517Z,-3.82
2023-03-01T06:09:11.036Z,-3.89
2023-03-01T06:11:40.280Z,-3.89
2023-03-01T06:14:11.656Z,-3.83
2023-03-01T06:16:41.232Z,-4.00
2023-03-01T06:19:10.479Z,-4.00
2023-03-01T06:21:39.841Z,-4.01
2023-03-01T06:24:09.371Z,-3.99
2023-03-01T06:26:38.846Z,-4.01
2023-03-01T06:29:09.621Z,-4.15
2023-03-01T06:31:39.328Z,-4.08
2023-03-01T06:34:08.649Z,-4.10
2023-03-01T06:36:38.012Z,-4.02
2023-03-01T06:39:07.246Z,-4.04
2023-03-01T06:41:36.847Z,-4.00
2023-03-01T06:44:06.257Z,-4.05
2023-03-01T06:46:35.932Z,-3.99
2023-03-01T06:49:06.930Z,-3.91
2023-03-01T06:51:37.620Z,-4.05
2023-03-01T06:54:07.116Z,-3.96
2023-03-01T06:56:36.842Z,-3.97
2023-03-01T06:59:06.333Z,-3.93
2023-03-01T07:01:35.901Z,-3.80
2023-03-01T07:04:05.339Z,-3.71
2023-03-01T07:06:34.848Z,-3.73
2023-03-01T07:09:04.570Z,-3.64
2023-03-01T07:11:34.481Z,-3.64
2023-03-01T07:14:04.272Z,-3.60
2023-03-01T07:16:34.197Z,-3.48
2023-03-01T07:19:03.832Z,-3.38
2023-03-01T07:21:33.288Z,-2.53
2023-03-01T07:24:02.532Z,-0.50
2023-03-01T07:26:32.111Z,0.79
2023-03-01T07:29:02.451Z,1.64
2023-03-01T07:31:31.926Z,1.30
2023-03-01T07:34:01.129Z,1.22
2023-03-01T07:36:30.852Z,0.63
2023-03-01T07:39:01.905Z,0.01
2023-03-01T07:41:32.046Z,0.34
2023-03-01T07:44:01.236Z,0.95
2023-03-01T07:46:30.824Z,1.08
2023-03-01T07:49:00.277Z,0.91
2023-03-01T07:51:29.559Z,1.27
2023-03-01T07:53:58.752Z,1.28
2023-03-01T07:56:28.460Z,1.32
2023-03-01T07:58:57.662Z,1.72
2023-03-01T08:01:27.079Z,1.84
2023-03-01T08:03:56.386Z,1.83
2023-03-01T08:06:25.721Z,2.10
2023-03-01T08:08:56.601Z,2.22
2023-03-01T08:11:26.264Z,2.19
2023-03-01T08:13:56.253Z,1.59
2023-03-01T08:16:25.815Z,1.53
2023-03-01T08:18:57.099Z,1.58
2023-03-01T08:21:26.357Z,1.68
2023-03-01T08:23:55.803Z,1.73
2023-03-01T08:26:25.016Z,2.54
2023-03-01T08:28:54.473Z,2.56
2023-03-01T08:31:25.976Z,3.42
2023-03-01T08:33:58.650Z,3.09
2023-03-01T08:36:34.089Z,3.12
2023-03-01T08:39:03.914Z,3.08
2023-03-01T08:41:33.660Z,3.13
2023-03-01T08:44:03.412Z,3.72
2023-03-01T08:46:36.888Z,4.86
2023-03-01T08:49:08.753Z,5.11
2023-03-01T08:51:38.284Z,6.64
2023-03-01T08:54:11.004Z,7.35
2023-03-01T08:56:40.895Z,7.55
2023-03-01T08:59:11.082Z,7.74
2023-03-01T09:01:41.316Z,8.36
2023-03-01T09:04:10.983Z,8.29
2023-03-01T09:06:40.311Z,7.42
2023-03-01T09:09:17.456Z,7.25
2023-03-01T09:11:47.680Z,8.23
2023-03-01T09:14:17.532Z,7.93
2023-03-01T09:16:47.960Z,9.86
2023-03-01T09:19:17.383Z,10.69
2023-03-01T09:21:48.521Z,8.51
2023-03-01T09:24:18.021Z,9.45
2023-03-01T09:26:49.473Z,10.02
2023-03-01T09:29:18.723Z,10.20
2023-03-01T09:31:48.543Z,9.74
2023-03-01T09:34:19.673Z,11.06
2023-03-01T09:36:49.173Z,10.92
2023-03-01T09:39:19.347Z,10.76
2023-03-01T09:42:05.829Z,11.27
2023-03-01T09:44:44.451Z,10.92
2023-03-01T09:47:16.834Z,10.45
2023-03-01T09:49:49.919Z,10.58
2023-03-01T09:52:34.202Z,10.06
2023-03-01T09:55:05.382Z,9.81
2023-03-01T09:57:54.530Z,10.25
2023-03-01T10:00:35.780Z,11.26
2023-03-01T10:03:24.962Z,11.94
2023-03-01T10:06:27.424Z,10.24
2023-03-01T10:08:59.959Z,11.59
2023-03-01T10:11:41.426Z,10.09
2023-03-01T10:14:35.291Z,9.81
2023-03-01T10:17:07.905Z,9.12
2023-03-01T10:19:38.027Z,8.94
2023-03-01T10:22:18.468Z,10.07
2023-03-01T10:24:47.779Z,10.33
2023-03-01T10:27:23.691Z,9.68
2023-03-01T10:30:12.020Z,10.37
2023-03-01T10:32:41.699Z,10.19
2023-03-01T10:35:22.863Z,10.48
2023-03-01T10:38:06.739Z,9.48
2023-03-01T10:40:37.468Z,8.91
2023-03-01T10:43:08.484Z,9.19
2023-03-01T10:45:40.097Z,9.70
2023-03-01T10:48:22.227Z,11.32
2023-03-01T10:51:01.421Z,11.59
2023-03-01T10:53:40.323Z,10.75
2023-03-01T10:56:16.496Z,10.34
2023-03-01T10:59:00.999Z,10.20
2023-03-01T11:01:34.878Z,10.89
2023-03-01T11:04:13.479Z,10.70
2023-03-01T11:06:43.872Z,12.32
2023-03-01T11:09:18.118Z,10.84
2023-03-01T11:11:47.732Z,10.23
2023-03-01T11:14:27.394Z,10.56
2023-03-01T11:17:03.754Z,11.25
2023-03-01T11:19:33.760Z,11.10
2023-03-01T11:22:05.481Z,11.08
2023-03-01T11:24:43.116Z,11.34
2023-03-01T11:27:20.986Z,10.63
2023-03-01T11:30:11.277Z,10.79
2023-03-01T11:32:49.480Z,10.38
2023-03-01T11:35:27.698Z,10.98
2023-03-01T11:38:27.082Z,10.53
2023-03-01T11:41:20.560Z,11.10
2023-03-01T11:44:26.322Z,10.33
2023-03-01T11:47:04.609Z,10.70
2023-03-01T11:50:10.802Z,11.04
2023-03-01T11:53:13.290Z,10.92
2023-03-01T11:56:04.147Z,10.87
2023-03-01T11:58:47.852Z,10.21
2023-03-01T12:01:55.952Z,9.79
2023-03-01T12:04:52.592Z,10.55
2023-03-01T12:07:31.514Z,10.74
2023-03-01T12:10:10.016Z,10.76
2023-03-01T12:12:47.878Z,12.12
2023-03-01T12:15:23.209Z,12.03
2023-03-01T12:18:17.211Z,10.45
2023-03-01T12:21:15.303Z,10.57
2023-03-01T12:23:56.866Z,11.55
2023-03-01T12:26:37.870Z,10.93
2023-03-01T12:29:26.072Z,11.18
2023-03-01T12:32:17.557Z,10.59
2023-03-01T12:34:58.973Z,10.31
2023-03-01T12:37:51.545Z,10.12
2023-03-01T12:40:38.771Z,9.56
2023-03-01T12:43:27.205Z,9.49
2023-03-01T12:46:22.510Z,9.29
2023-03-01T12:49:07.083Z,9.43
2023-03-01T12:51:37.735Z,9.54
2023-03-01T12:54:10.923Z,8.92
2023-03-01T12:56:40.521Z,9.84
2023-03-01T12:59:18.911Z,9.42
2023-03-01T13:01:57.339Z,9.31
2023-03-01T13:04:37.514Z,9.00
2023-03-01T13:07:25.763Z,8.95
2023-03-01T13:10:31.911Z,9.11
2023-03-01T13:13:07.054Z,8.78
2023-03-01T13:15:40.589Z,9.05
2023-03-01T13:18:23.361Z,9.27
2023-03-01T13:20:52.323Z,9.12
2023-03-01T13:23:27.504Z,9.53
2023-03-01T13:26:02.663Z,9.29
2023-03-01T13:28:42.356Z,9.36
2023-03-01T13:31:15.785Z,8.98
2023-03-01T13:33:53.185Z,9.06
2023-03-01T13:36:36.321Z,8.91
2023-03-01T13:39:08.643Z,8.94
2023-03-01T13:41:47.245Z,8.82
2023-03-01T13:44:40.070Z,8.70
2023-03-01T13:47:15.278Z,8.70
2023-03-01T13:49:56.460Z,8.66
2023-03-01T13:52:45.500Z,8.93
2023-03-01T13:55:23.166Z,8.57
2023-03-01T13:57:58.603Z,8.41
2023-03-01T14:00:38.521Z,9.21
2023-03-01T14:03:16.857Z,9.03
2023-03-01T14:06:14.985Z,8.80
2023-03-01T14:08:39.092Z,8.42
2023-03-01T14:11:27.074Z,8.32
2023-03-01T14:14:17.560Z,8.46
2023-03-01T14:16:59.164Z,8.35
2023-03-01T14:19:34.301Z,8.31
2023-03-01T14:22:18.990Z,8.38
2023-03-01T14:24:54.558Z,8.63
2023-03-01T14:27:29.719Z,8.01
2023-03-01T14:30:01.884Z,8.21
2023-03-01T14:32:33.632Z,8.27
2023-03-01T14:35:02.922Z,8.24
2023-03-01T14:37:34.690Z,8.42
2023-03-01T14:40:06.397Z,7.85
2023-03-01T14:42:37.197Z,8.11
2023-03-01T14:45:07.455Z,8.21
2023-03-01T14:47:39.360Z,8.04
2023-03-01T14:50:11.698Z,8.81
2023-03-01T14:52:43.481Z,8.73
2023-03-01T14:55:21.746Z,8.38
2023-03-01T14:57:52.335Z,8.24
2023-03-01T15:00:28.532Z,7.84
2023-03-01T15:03:00.597Z,7.51
2023-03-01T15:05:34.353Z,7.62
2023-03-01T15:08:04.749Z,7.62
2023-03-01T15:10:36.354Z,7.41
2023-03-01T15:13:26.157Z,7.04
2023-03-01T15:15:58.861Z,7.30
2023-03-01T15:18:31.788Z,7.27
2023-03-01T15:21:13.517Z,6.98
2023-03-01T15:23:42.909Z,7.24
2023-03-01T15:26:27.046Z,7.08
2023-03-01T15:28:59.952Z,7.33
2023-03-01T15:31:39.728Z,7.25
2023-03-01T15:34:28.368Z,7.22
2023-03-01T15:37:00.337Z,6.86
2023-03-01T15:39:47.093Z,6.64
2023-03-01T15:42:31.958Z,6.55
2023-03-01T15:45:21.328Z,6.18
2023-03-01T15:47:57.931Z,6.08
2023-03-01T15:50:29.705Z,5.99
2023-03-01T15:53:00.645Z,5.90
2023-03-01T15:55:34.037Z,5.80
2023-03-01T15:58:07.755Z,5.73
2023-03-01T16:00:37.158Z,5.66
2023-03-01T16:03:08.365Z,5.61
2023-03-01T16:05:37.864Z,5.50
2023-03-01T16:08:08.110Z,5.42
2023-03-01T16:10:37.934Z,5.38
2023-03-01T16:13:07.352Z,5.41
2023-03-01T16:15:37.151Z,5.34
2023-03-01T16:18:11.380Z,5.32
2023-03-01T16:20:41.280Z,5.28
2023-03-01T16:23:11.924Z,5.23
2023-03-01T16:25:41.170Z,5.14
2023-03-01T16:28:11.155Z,5.04
2023-03-01T16:30:41.374Z,4.95
2023-03-01T16:33:24.916Z,4.87
2023-03-01T16:35:42.835Z,4.86
2023-03-01T16:38:13.037Z,4.80
2023-03-01T16:40:45.191Z,4.77
2023-03-01T16:43:14.470Z,4.68
2023-03-01T16:45:45.912Z,4.63
2023-03-01T16:48:15.642Z,4.52
2023-03-01T16:50:44.854Z,4.55
2023-03-01T16:53:14.539Z,4.49
2023-03-01T16:55:45.396Z,4.47
2023-03-01T16:58:16.603Z,4.37
2023-03-01T17:00:45.954Z,4.30
2023-03-01T17:03:17.244Z,4.19
2023-03-01T17:05:46.543Z,4.15
2023-03-01T17:08:15.928Z,4.00
2023-03-01T17:10:45.604Z,3.82
2023-03-01T17:13:15.371Z,3.62
2023-03-01T17:15:44.599Z,3.63
2023-03-01T17:18:14.801Z,3.44
2023-03-01T17:20:44.044Z,3.36
2023-03-01T17:23:13.466Z,3.41
2023-03-01T17:25:46.212Z,3.32
2023-03-01T17:28:16.125Z,3.16
2023-03-01T17:30:48.097Z,3.12
2023-03-01T17:33:18.531Z,3.09
2023-03-01T17:35:48.164Z,3.00
2023-03-01T17:38:18.875Z,2.85
2023-03-01T17:40:48.094Z,2.90
2023-03-01T17:43:18.326Z,2.83
2023-03-01T17:45:52.484Z,2.65
2023-03-01T17:48:21.966Z,2.36
2023-03-01T17:50:51.157Z,2.14
2023-03-01T17:53:20.479Z,2.03
2023-03-01T17:55:51.452Z,2.09
2023-03-01T17:58:22.899Z,2.02
2023-03-01T18:00:52.701Z,1.71
2023-03-01T18:03:22.552Z,1.71
2023-03-01T18:05:52.030Z,1.55
2023-03-01T18:08:21.373Z,1.31
2023-03-01T18:10:50.760Z,1.20
2023-03-01T18:13:20.377Z,1.27
2023-03-01T18:15:50.563Z,1.43
2023-03-01T18:18:20.020Z,1.58
2023-03-01T18:20:52.803Z,1.47
2023-03-01T18:23:22.079Z,1.40
2023-03-01T18:25:53.163Z,1.20
2023-03-01T18:28:23.788Z,0.90
2023-03-01T18:31:00.226Z,0.70
2023-03-01T18:33:30.040Z,0.66
2023-03-01T18:35:59.519Z,0.59
2023-03-01T18:38:31.110Z,0.56
2023-03-01T18:41:00.359Z,0.47
2023-03-01T18:43:31.489Z,0.43
2023-03-01T18:46:00.763Z,0.41
2023-03-01T18:48:30.592Z,0.34
2023-03-01T18:51:01.529Z,0.23
2023-03-01T18:53:30.951Z,0.20
2023-03-01T18:56:02.196Z,0.00
2023-03-01T18:58:31.920Z,-0.10
2023-03-01T19:01:02.933Z,-0.08
2023-03-01T19:03:32.763Z,-0.13
2023-03-01T19:06:02.340Z,-0.16
2023-03-01T19:08:32.192Z,-0.17
2023-03-01T19:11:04.146Z,-0.29
2023-03-01T19:13:35.583Z,-0.36
2023-03-01T19:16:10.851Z,-0.39
2023-03-01T19:18:42.040Z,-0.39
2023-03-01T19:21:13.007Z,-0.40
2023-03-01T19:23:42.662Z,-0.44
2023-03-01T19:26:14.223Z,-0.36
2023-03-01T19:28:46.104Z,-0.43
2023-03-01T19:31:19.188Z,-0.48
2023-03-01T19:33:50.069Z,-0.57
2023-03-01T19:36:21.445Z,-0.44
2023-03-01T19:38:50.797Z,-0.41
2023-03-01T19:41:22.343Z,-0.60
2023-03-01T19:43:51.909Z,-0.68
2023-03-01T19:46:21.897Z,-0.66
2023-03-01T19:48:53.376Z,-0.57
2023-03-01T19:51:23.400Z,-0.49
2023-03-01T19:53:54.243Z,-0.61
2023-03-01T19:56:23.869Z,-0.65
2023-03-01T19:58:55.569Z,-0.66
2023-03-01T20:01:25.363Z,-0.55
2023-03-01T20:03:55.175Z,-0.46
2023-03-01T20:06:25.963Z,-0.55
2023-03-01T20:08:55.389Z,-0.69
2023-03-01T20:11:25.000Z,-0.77
2023-03-01T20:13:54.424Z,-0.76
2023-03-01T20:16:24.802Z,-0.79
2023-03-01T20:18:54.941Z,-0.74
2023-03-01T20:21:25.106Z,-0.76
2023-03-01T20:23:54.900Z,-0.75
2023-03-01T20:26:25.840Z,-0.75
2023-03-01T20:28:57.334Z,-0.67
2023-03-01T20:31:29.726Z,-0.78
2023-03-01T20:34:00.043Z,-0.69
2023-03-01T20:36:30.086Z,-0.55
2023-03-01T20:38:59.341Z,-0.82
2023-03-01T20:41:28.860Z,-0.65
2023-03-01T20:43:59.514Z,-0.43
2023-03-01T20:46:31.436Z,-0.41
2023-03-01T20:49:01.482Z,-0.52
2023-03-01T20:51:31.525Z,-0.55
2023-03-01T20:54:01.113Z,-0.58
2023-03-01T20:56:31.740Z,-0.45
2023-03-01T20:59:05.725Z,-0.44
2023-03-01T21:01:35.379Z,-0.60
2023-03-01T21:04:05.170Z,-0.82
2023-03-01T21:06:34.960Z,-0.78
2023-03-01T21:09:04.831Z,-0.80
2023-03-01T21:11:34.068Z,-0.91
2023-03-01T21:14:05.043Z,-0.93
2023-03-01T21:16:35.491Z,-0.78
2023-03-01T21:19:05.256Z,-0.60
2023-03-01T21:21:34.506Z,-0.67
2023-03-01T21:24:03.914Z,-0.81
2023-03-01T21:26:35.101Z,-0.98
2023-03-01T21:29:04.975Z,-0.93
2023-03-01T21:31:36.167Z,-1.04
2023-03-01T21:34:07.058Z,-1.05
2023-03-01T21:36:37.171Z,-0.97
2023-03-01T21:39:08.251Z,-1.00
2023-03-01T21:41:39.086Z,-1.15
2023-03-01T21:44:08.998Z,-1.05
2023-03-01T21:46:40.104Z,-1.00
2023-03-01T21:49:11.303Z,-0.86
2023-03-01T21:51:40.960Z,-0.90
2023-03-01T21:54:13.581Z,-1.01
2023-03-01T21:56:43.667Z,-1.16
2023-03-01T21:59:23.325Z,-1.19
2023-03-01T22:01:53.299Z,-1.25
2023-03-01T22:04:25.199Z,-1.14
2023-03-01T22:06:55.132Z,-1.08
2023-03-01T22:09:28.865Z,-1.05
2023-03-01T22:12:08.133Z,-0.91
2023-03-01T22:14:37.734Z,-1.14
2023-03-01T22:17:08.973Z,-1.22
2023-03-01T22:19:41.433Z,-1.18
2023-03-01T22:22:11.168Z,-1.19
2023-03-01T22:24:42.090Z,-1.35
2023-03-01T22:27:12.457Z,-1.28
2023-03-01T22:29:42.405Z,-1.28
2023-03-01T22:32:12.974Z,-1.28
2023-03-01T22:34:44.379Z,-1.41
2023-03-01T22:37:14.220Z,-1.46
2023-03-01T22:39:43.583Z,-1.42
2023-03-01T22:42:12.811Z,-1.34
2023-03-01T22:44:42.079Z,-1.39
2023-03-01T22:47:11.486Z,-1.48
2023-03-01T22:49:42.274Z,-1.44
2023-03-01T22:52:11.788Z,-1.55
2023-03-01T22:54:45.316Z,-1.52
2023-03-01T22:57:15.806Z,-1.61
2023-03-01T22:59:45.276Z,-1.57
2023-03-01T23:02:15.487Z,-1.52
2023-03-01T23:04:49.116Z,-1.54
2023-03-01T23:07:18.633Z,-1.58
2023-03-01T23:09:50.672Z,-1.52
2023-03-01T23:12:19.277Z,-1.48
2023-03-01T23:14:48.580Z,-1.47
2023-03-01T23:17:18.194Z,-1.53
2023-03-01T23:19:47.656Z,-1.62
2023-03-01T23:22:17.259Z,-1.59
2023-03-01T23:24:47.630Z,-1.58
2023-03-01T23:27:17.761Z,-1.65
2023-03-01T23:29:47.137Z,-1.73
2023-03-01T23:32:16.515Z,-1.85
2023-03-01T23:34:45.927Z,-1.91
2023-03-01T23:37:15.694Z,-1.87
2023-03-01T23:39:44.942Z,-1.89
2023-03-01T23:42:14.286Z,-1.94
2023-03-01T23:44:43.909Z,-1.88
2023-03-01T23:47:13.330Z,-1.99
2023-03-01T23:49:42.601Z,-1.99
2023-03-01T23:52:16.045Z,-1.93
2023-03-01T23:54:45.354Z,-2.01
2023-03-01T23:57:14.710Z,-1.99
2023-03-01T23:59:43.930Z,-2.12
